createdAt,value
2022-12-26T00:01:12.734Z,5.00
2022-12-26T00:03:39.559Z,4.87
2022-12-26T00:06:13.157Z,4.55
2022-12-26T00:08:39.600Z,4.85
2022-12-26T00:11:06.223Z,4.32
2022-12-26T00:13:37.232Z,4.85
2022-12-26T00:16:08.733Z,5.57
2022-12-26T00:18:35.411Z,4.50
2022-12-26T00:21:02.091Z,4.53
2022-12-26T00:23:28.576Z,6.00
2022-12-26T00:25:55.021Z,5.88
2022-12-26T00:28:21.395Z,5.25
2022-12-26T00:30:47.730Z,4.78
2022-12-26T00:33:14.056Z,5.25
2022-12-26T00:35:40.415Z,4.68
2022-12-26T00:38:07.607Z,4.85
2022-12-26T00:40:34.077Z,5.30
2022-12-26T00:43:00.486Z,4.85
2022-12-26T00:45:26.789Z,6.32
2022-12-26T00:47:53.267Z,6.07
2022-12-26T00:50:20.056Z,5.72
2022-12-26T00:52:46.427Z,5.80
2022-12-26T00:55:12.767Z,4.85
2022-12-26T00:57:39.169Z,6.05
2022-12-26T01:00:06.510Z,5.82
2022-12-26T01:02:33.109Z,6.13
2022-12-26T01:04:59.706Z,8.20
2022-12-26T01:07:26.109Z,8.27
2022-12-26T01:09:52.438Z,7.50
2022-12-26T01:12:18.957Z,9.43
2022-12-26T01:14:45.532Z,8.20
2022-12-26T01:17:12.140Z,8.60
2022-12-26T01:19:38.577Z,8.30
2022-12-26T01:22:04.994Z,11.10
2022-12-26T01:24:31.683Z,9.23
2022-12-26T01:26:58.037Z,12.75
2022-12-26T01:29:24.497Z,13.60
2022-12-26T01:31:50.937Z,14.48
2022-12-26T01:34:17.465Z,14.75
2022-12-26T01:36:43.836Z,16.33
2022-12-26T01:39:10.268Z,16.65
2022-12-26T01:41:38.074Z,17.08
2022-12-26T01:44:07.908Z,17.85
2022-12-26T01:46:37.448Z,16.23
2022-12-26T01:49:13.940Z,15.98
2022-12-26T01:51:44.857Z,15.15
2022-12-26T01:57:04.719Z,15.55
2022-12-26T01:59:32.929Z,15.88
2022-12-26T02:02:00.835Z,15.00
2022-12-26T02:04:39.719Z,11.80
2022-12-26T02:07:06.406Z,10.75
2022-12-26T02:09:33.781Z,9.02
2022-12-26T02:12:35.861Z,8.85
2022-12-26T02:14:57.387Z,8.75
2022-12-26T02:17:25.819Z,9.48
2022-12-26T02:19:58.167Z,9.05
2022-12-26T02:22:46.335Z,9.20
2022-12-26T02:25:32.745Z,7.85
2022-12-26T02:28:12.966Z,8.38
2022-12-26T02:31:09.030Z,7.18
2022-12-26T02:34:09.440Z,7.07
2022-12-26T02:37:00.367Z,6.65
2022-12-26T02:39:43.638Z,6.55
2022-12-26T02:42:22.633Z,6.53
2022-12-26T02:45:03.445Z,6.60
2022-12-26T02:47:44.636Z,5.90
2022-12-26T02:50:23.993Z,6.60
2022-12-26T02:53:17.071Z,7.07
2022-12-26T02:55:47.050Z,7.57
2022-12-26T02:58:21.191Z,6.73
2022-12-26T03:00:52.547Z,6.43
2022-12-26T03:03:22.445Z,6.20
2022-12-26T03:05:58.537Z,6.70
2022-12-26T03:08:32.133Z,7.10
2022-12-26T03:10:58.865Z,6.60
2022-12-26T03:13:31.819Z,7.22
2022-12-26T03:16:07.031Z,7.38
2022-12-26T03:18:58.890Z,6.55
2022-12-26T03:21:27.747Z,7.83
2022-12-26T03:23:56.634Z,6.78
2022-12-26T03:26:31.146Z,7.15
2022-12-26T03:28:57.604Z,8.02
2022-12-26T03:31:24.047Z,6.60
2022-12-26T03:33:50.460Z,7.60
2022-12-26T03:36:40.797Z,6.15
2022-12-26T03:39:24.039Z,7.22
2022-12-26T03:42:09.780Z,8.25
2022-12-26T03:44:58.479Z,8.15
2022-12-26T03:47:33.192Z,7.53
2022-12-26T03:50:26.051Z,6.75
2022-12-26T03:53:08.320Z,6.57
2022-12-26T03:55:45.202Z,6.22
2022-12-26T03:58:27.156Z,6.50
2022-12-26T04:00:56.539Z,7.78
2022-12-26T04:03:25.749Z,7.32
2022-12-26T04:05:53.679Z,8.10
2022-12-26T04:08:26.280Z,7.45
2022-12-26T04:10:55.894Z,9.02
2022-12-26T04:13:37.129Z,8.52
2022-12-26T04:16:14.480Z,8.30
2022-12-26T04:19:01.167Z,8.32
2022-12-26T04:21:34.997Z,7.82
2022-12-26T04:24:09.803Z,8.20
2022-12-26T04:26:46.265Z,8.20
2022-12-26T04:29:12.734Z,8.43
2022-12-26T04:31:55.271Z,7.45
2022-12-26T04:34:34.064Z,8.00
2022-12-26T04:37:05.904Z,10.75
2022-12-26T04:39:35.024Z,10.82
2022-12-26T04:42:02.173Z,13.68
2022-12-26T04:44:30.298Z,13.25
2022-12-26T04:46:57.189Z,10.38
2022-12-26T04:49:23.880Z,8.90
2022-12-26T04:51:50.426Z,8.35
2022-12-26T04:54:17.153Z,7.15
2022-12-26T04:56:43.666Z,7.03
2022-12-26T04:59:10.507Z,8.57
2022-12-26T05:01:37.068Z,9.60
2022-12-26T05:04:03.842Z,9.25
2022-12-26T05:06:30.279Z,9.35
2022-12-26T05:08:56.622Z,10.05
2022-12-26T05:11:24.061Z,8.70
2022-12-26T05:13:55.958Z,8.55
2022-12-26T05:16:23.948Z,9.00
2022-12-26T05:18:50.695Z,9.85
2022-12-26T05:21:18.646Z,8.45
2022-12-26T05:23:45.190Z,6.28
2022-12-26T05:26:17.130Z,6.43
2022-12-26T05:28:44.012Z,6.45
2022-12-26T05:31:15.018Z,6.40
2022-12-26T05:33:41.945Z,7.05
2022-12-26T05:36:09.731Z,7.07
2022-12-26T05:38:37.083Z,7.38
2022-12-26T05:41:04.111Z,7.07
2022-12-26T05:43:30.638Z,8.18
2022-12-26T05:45:57.179Z,6.82
2022-12-26T05:48:23.678Z,6.45
2022-12-26T05:50:51.388Z,6.97
2022-12-26T05:53:17.783Z,6.82
2022-12-26T05:55:44.363Z,6.82
2022-12-26T05:58:10.736Z,10.00
2022-12-26T06:00:37.428Z,8.77
2022-12-26T06:03:04.018Z,9.70
2022-12-26T06:05:30.443Z,8.43
2022-12-26T06:07:57.007Z,7.97
2022-12-26T06:10:23.371Z,7.18
2022-12-26T06:12:49.938Z,6.78
2022-12-26T06:15:16.744Z,7.57
2022-12-26T06:17:43.105Z,7.97
2022-12-26T06:20:09.726Z,8.68
2022-12-26T06:22:36.632Z,8.32
2022-12-26T06:25:03.034Z,8.82
2022-12-26T06:27:29.606Z,7.97
2022-12-26T06:29:56.325Z,8.25
2022-12-26T06:32:22.823Z,7.88
2022-12-26T06:34:49.410Z,7.75
2022-12-26T06:37:16.010Z,8.15
2022-12-26T06:39:42.609Z,6.88
2022-12-26T06:42:09.039Z,7.75
2022-12-26T06:44:35.563Z,6.80
2022-12-26T06:47:02.012Z,7.95
2022-12-26T06:49:32.724Z,6.30
2022-12-26T06:51:59.687Z,6.85
2022-12-26T06:54:26.205Z,5.95
2022-12-26T06:56:52.860Z,6.63
2022-12-26T06:59:19.316Z,6.38
2022-12-26T07:01:45.843Z,7.65
2022-12-26T07:04:13.054Z,6.60
2022-12-26T07:06:40.385Z,6.55
2022-12-26T07:09:15.997Z,6.97
2022-12-26T07:11:46.712Z,6.68
2022-12-26T07:14:13.864Z,6.63
2022-12-26T07:16:42.636Z,5.82
2022-12-26T07:19:11.410Z,6.13
2022-12-26T07:21:41.038Z,6.47
2022-12-26T07:24:15.746Z,5.70
2022-12-26T07:26:42.758Z,6.45
2022-12-26T07:29:10.379Z,6.80
2022-12-26T07:31:36.903Z,7.13
2022-12-26T07:34:03.700Z,6.63
2022-12-26T07:36:30.006Z,6.82
2022-12-26T07:38:56.501Z,6.65
2022-12-26T07:41:23.435Z,6.68
2022-12-26T07:43:49.853Z,5.78
2022-12-26T07:46:16.424Z,6.47
2022-12-26T07:48:42.980Z,5.80
2022-12-26T07:51:09.640Z,5.85
2022-12-26T07:53:36.097Z,6.32
2022-12-26T07:56:02.594Z,6.78
2022-12-26T07:58:28.963Z,6.53
2022-12-26T08:00:55.731Z,6.57
2022-12-26T08:03:23.084Z,6.53
2022-12-26T08:05:50.368Z,6.63
2022-12-26T08:08:17.144Z,7.30
2022-12-26T08:10:43.670Z,7.05
2022-12-26T08:13:10.173Z,7.55
2022-12-26T08:15:39.932Z,7.00
2022-12-26T08:18:07.147Z,6.72
2022-12-26T08:20:34.004Z,8.07
2022-12-26T08:23:00.668Z,7.50
2022-12-26T08:25:27.353Z,7.00
2022-12-26T08:27:53.954Z,7.13
2022-12-26T08:30:20.289Z,7.93
2022-12-26T08:32:46.796Z,7.95
2022-12-26T08:35:13.262Z,7.68
2022-12-26T08:37:39.794Z,8.27
2022-12-26T08:40:06.567Z,8.70
2022-12-26T08:42:34.641Z,8.27
2022-12-26T08:45:06.902Z,9.25
2022-12-26T08:47:33.425Z,8.38
2022-12-26T08:49:59.867Z,9.43
2022-12-26T08:52:26.296Z,8.05
2022-12-26T08:54:52.718Z,8.10
2022-12-26T08:57:19.062Z,8.27
2022-12-26T08:59:45.609Z,9.05
2022-12-26T09:02:12.489Z,9.35
2022-12-26T09:04:39.088Z,8.63
2022-12-26T09:07:08.261Z,9.20
2022-12-26T09:09:34.972Z,10.40
2022-12-26T09:12:01.644Z,10.07
2022-12-26T09:14:27.987Z,8.95
2022-12-26T09:16:54.553Z,11.73
2022-12-26T09:19:21.666Z,11.43
2022-12-26T09:21:51.414Z,10.88
2022-12-26T09:24:18.212Z,9.80
2022-12-26T09:26:45.213Z,10.30
2022-12-26T09:29:12.240Z,10.27
2022-12-26T09:31:39.095Z,9.13
2022-12-26T09:34:06.532Z,8.95
2022-12-26T09:36:35.938Z,9.95
2022-12-26T09:39:02.374Z,10.32
2022-12-26T09:42:00.149Z,10.10
2022-12-26T09:44:48.521Z,10.63
2022-12-26T09:47:17.978Z,9.00
2022-12-26T09:50:02.635Z,9.00
2022-12-26T09:52:52.417Z,8.55
2022-12-26T09:55:29.363Z,8.27
2022-12-26T09:58:01.359Z,8.70
2022-12-26T10:00:38.498Z,9.52
2022-12-26T10:03:05.275Z,9.85
2022-12-26T10:05:41.130Z,9.23
2022-12-26T10:08:50.002Z,8.32
2022-12-26T10:11:46.451Z,9.13
2022-12-26T10:14:30.510Z,8.95
2022-12-26T10:17:05.526Z,9.57
2022-12-26T10:19:42.707Z,8.88
2022-12-26T10:22:27.353Z,9.60
2022-12-26T10:24:59.637Z,8.82
2022-12-26T10:27:28.258Z,11.38
2022-12-26T10:30:05.497Z,10.32
2022-12-26T10:32:39.814Z,11.20
2022-12-26T10:35:27.355Z,9.20
2022-12-26T10:37:57.039Z,9.13
2022-12-26T10:40:34.022Z,9.73
2022-12-26T10:43:20.553Z,9.35
2022-12-26T10:46:16.500Z,9.32
2022-12-26T10:48:43.061Z,9.57
2022-12-26T10:51:09.711Z,9.35
2022-12-26T10:53:41.661Z,9.00
2022-12-26T10:56:11.956Z,8.68
2022-12-26T10:58:41.391Z,9.52
2022-12-26T11:01:29.435Z,10.18
2022-12-26T11:03:58.277Z,9.18
2022-12-26T11:06:28.874Z,10.88
2022-12-26T11:08:55.856Z,10.23
2022-12-26T11:11:28.824Z,10.50
2022-12-26T11:14:02.057Z,12.43
2022-12-26T11:16:40.035Z,13.10
2022-12-26T11:19:06.576Z,14.13
2022-12-26T11:21:33.470Z,13.98
2022-12-26T11:24:08.980Z,17.63
2022-12-26T11:26:36.558Z,12.43
2022-12-26T11:29:07.533Z,10.80
2022-12-26T11:31:34.145Z,14.30
2022-12-26T11:34:01.250Z,13.75
2022-12-26T11:36:30.021Z,14.15
2022-12-26T11:39:00.456Z,12.18
2022-12-26T11:41:27.398Z,10.80
2022-12-26T11:43:55.752Z,10.88
2022-12-26T11:46:32.923Z,10.82
2022-12-26T11:48:59.660Z,12.15
2022-12-26T11:51:40.264Z,12.23
2022-12-26T11:54:23.597Z,13.82
2022-12-26T11:57:01.144Z,11.55
2022-12-26T11:59:27.889Z,10.48
2022-12-26T12:02:31.942Z,11.48
2022-12-26T12:05:07.121Z,11.55
2022-12-26T12:07:58.388Z,11.85
2022-12-26T12:11:09.912Z,10.35
2022-12-26T12:13:56.229Z,8.98
2022-12-26T12:16:28.944Z,9.50
2022-12-26T12:19:03.558Z,9.52
2022-12-26T12:21:45.094Z,11.43
2022-12-26T12:24:36.701Z,9.90
2022-12-26T12:27:11.851Z,9.88
2022-12-26T12:30:12.375Z,8.70
2022-12-26T12:33:02.559Z,10.55
2022-12-26T12:35:50.217Z,8.50
2022-12-26T12:38:28.668Z,9.55
2022-12-26T12:41:13.130Z,9.52
2022-12-26T12:43:48.084Z,7.55
2022-12-26T12:46:22.980Z,7.45
2022-12-26T12:49:15.932Z,8.10
2022-12-26T12:51:58.241Z,7.88
2022-12-26T12:54:53.919Z,6.68
2022-12-26T12:57:52.527Z,4.93
2022-12-26T13:00:22.360Z,5.63
2022-12-26T13:03:00.138Z,4.00
2022-12-26T13:06:07.833Z,3.33
2022-12-26T13:08:39.114Z,2.97
2022-12-26T13:11:25.264Z,3.50
2022-12-26T13:14:01.380Z,2.80
2022-12-26T13:16:32.548Z,3.22
2022-12-26T13:19:04.190Z,2.75
2022-12-26T13:21:35.643Z,2.75
2022-12-26T13:24:11.906Z,2.35
2022-12-26T13:27:00.017Z,1.98
2022-12-26T13:29:41.371Z,2.38
2022-12-26T13:32:34.195Z,2.33
2022-12-26T13:35:02.465Z,2.10
2022-12-26T13:37:37.815Z,2.20
2022-12-26T13:40:27.344Z,2.10
2022-12-26T13:43:03.114Z,1.67
2022-12-26T13:45:35.509Z,1.52
2022-12-26T13:48:27.919Z,1.23
2022-12-26T13:50:56.948Z,1.63
2022-12-26T13:53:26.275Z,1.92
2022-12-26T13:55:55.432Z,1.80
2022-12-26T13:58:40.852Z,1.80
2022-12-26T14:01:28.880Z,2.47
2022-12-26T14:04:26.277Z,1.58
2022-12-26T14:07:20.566Z,1.73
2022-12-26T14:10:05.095Z,1.58
2022-12-26T14:12:40.471Z,1.77
2022-12-26T14:15:21.847Z,1.50
2022-12-26T14:18:09.533Z,1.50
2022-12-26T14:20:49.465Z,2.35
2022-12-26T14:23:37.763Z,13.02
2022-12-26T14:26:31.598Z,12.27
2022-12-26T14:29:22.341Z,4.40
2022-12-26T14:32:07.246Z,2.30
2022-12-26T14:35:01.740Z,2.72
2022-12-26T14:37:44.284Z,3.28
2022-12-26T14:40:22.992Z,2.55
2022-12-26T14:43:10.547Z,4.78
2022-12-26T14:45:38.943Z,4.13
2022-12-26T14:48:17.903Z,2.30
2022-12-26T14:50:49.293Z,2.17
2022-12-26T14:53:24.971Z,2.20
2022-12-26T14:56:23.407Z,2.55
2022-12-26T14:58:51.748Z,2.15
2022-12-26T15:01:24.403Z,2.35
2022-12-26T15:03:50.784Z,1.60
2022-12-26T15:06:20.198Z,1.52
2022-12-26T15:09:08.475Z,1.88
2022-12-26T15:11:49.812Z,2.13
2022-12-26T15:14:57.592Z,2.05
2022-12-26T15:17:52.568Z,2.15
2022-12-26T15:20:43.257Z,2.20
2022-12-26T15:23:27.560Z,1.80
2022-12-26T15:26:31.541Z,2.30
2022-12-26T15:29:19.593Z,2.50
2022-12-26T15:31:52.013Z,2.10
2022-12-26T15:34:41.948Z,2.67
2022-12-26T15:37:30.786Z,2.30
2022-12-26T15:40:12.021Z,2.47
2022-12-26T15:43:01.162Z,3.65
2022-12-26T15:45:46.476Z,2.38
2022-12-26T15:48:34.559Z,2.50
2022-12-26T15:51:22.372Z,2.60
2022-12-26T15:54:00.999Z,2.10
2022-12-26T15:56:45.601Z,2.33
2022-12-26T15:59:12.102Z,1.95
2022-12-26T16:01:46.505Z,2.30
2022-12-26T16:04:21.973Z,2.10
2022-12-26T16:07:08.970Z,1.33
2022-12-26T16:09:45.148Z,1.42
2022-12-26T16:12:30.150Z,1.40
2022-12-26T16:15:11.608Z,0.93
2022-12-26T16:17:39.741Z,1.33
2022-12-26T16:20:24.326Z,1.50
2022-12-26T16:22:50.753Z,1.45
2022-12-26T16:25:21.711Z,1.17
2022-12-26T16:27:51.424Z,1.30
2022-12-26T16:30:21.916Z,1.15
2022-12-26T16:32:49.636Z,1.00
2022-12-26T16:35:26.740Z,1.40
2022-12-26T16:37:56.337Z,0.90
2022-12-26T16:40:31.175Z,0.90
2022-12-26T16:43:17.518Z,1.23
2022-12-26T16:45:52.762Z,1.10
2022-12-26T16:48:21.875Z,1.13
2022-12-26T16:50:52.401Z,1.10
2022-12-26T16:53:24.602Z,1.15
2022-12-26T16:56:14.977Z,2.42
2022-12-26T16:58:41.492Z,1.88
2022-12-26T17:01:12.370Z,1.60
2022-12-26T17:06:15.414Z,1.77
2022-12-26T17:08:48.738Z,2.15
2022-12-26T17:11:15.861Z,3.33
2022-12-26T17:13:49.863Z,1.98
2022-12-26T17:16:16.369Z,1.60
2022-12-26T17:18:49.921Z,1.40
2022-12-26T17:21:27.185Z,1.45
2022-12-26T17:24:19.773Z,1.23
2022-12-26T17:26:51.516Z,1.15
2022-12-26T17:29:45.978Z,1.10
2022-12-26T17:32:15.954Z,1.15
2022-12-26T17:34:42.671Z,1.07
2022-12-26T17:37:19.947Z,1.30
2022-12-26T17:40:00.896Z,1.25
2022-12-26T17:42:29.367Z,1.40
2022-12-26T17:44:55.772Z,1.00
2022-12-26T17:47:28.250Z,0.88
2022-12-26T17:49:55.849Z,0.80
2022-12-26T17:52:27.025Z,1.10
2022-12-26T17:54:53.847Z,1.00
2022-12-26T17:57:23.686Z,1.10
2022-12-26T17:59:52.180Z,1.15
2022-12-26T18:02:19.771Z,1.42
2022-12-26T18:04:47.341Z,1.27
2022-12-26T18:07:19.371Z,1.50
2022-12-26T18:09:46.512Z,2.28
2022-12-26T18:12:14.923Z,2.28
2022-12-26T18:14:41.497Z,6.20
2022-12-26T18:17:11.129Z,5.28
2022-12-26T18:19:37.471Z,3.90
2022-12-26T18:22:12.840Z,4.38
2022-12-26T18:24:39.158Z,2.67
2022-12-26T18:27:05.741Z,2.60
2022-12-26T18:29:32.088Z,2.53
2022-12-26T18:31:58.609Z,2.95
2022-12-26T18:34:25.309Z,2.72
2022-12-26T18:36:52.034Z,2.33
2022-12-26T18:39:18.656Z,2.00
2022-12-26T18:41:45.586Z,2.00
2022-12-26T18:44:12.085Z,1.48
2022-12-26T18:46:38.451Z,1.40
2022-12-26T18:49:04.850Z,0.98
2022-12-26T18:51:31.251Z,1.20
2022-12-26T18:53:57.794Z,1.20
2022-12-26T18:56:24.108Z,1.05
2022-12-26T18:58:57.564Z,1.40
2022-12-26T19:01:24.911Z,0.90
2022-12-26T19:03:51.408Z,1.10
2022-12-26T19:06:26.820Z,1.00
2022-12-26T19:08:53.453Z,0.70
2022-12-26T19:11:20.194Z,0.60
2022-12-26T19:13:47.059Z,0.50
2022-12-26T19:16:13.937Z,0.50
2022-12-26T19:18:40.490Z,1.02
2022-12-26T19:21:12.346Z,0.70
2022-12-26T19:23:39.229Z,0.60
2022-12-26T19:26:10.529Z,0.70
2022-12-26T19:28:36.929Z,0.82
2022-12-26T19:31:11.064Z,0.70
2022-12-26T19:33:37.769Z,0.80
2022-12-26T19:36:05.653Z,0.77
2022-12-26T19:38:32.274Z,0.73
2022-12-26T19:41:07.363Z,0.93
2022-12-26T19:43:33.833Z,1.00
2022-12-26T19:46:05.638Z,0.77
2022-12-26T19:48:36.221Z,0.88
2022-12-26T19:51:07.994Z,1.02
2022-12-26T19:53:35.829Z,1.02
2022-12-26T19:56:17.182Z,0.88
2022-12-26T19:58:44.786Z,1.13
2022-12-26T20:01:18.104Z,1.05
2022-12-26T20:03:45.312Z,1.10
2022-12-26T20:06:14.167Z,1.20
2022-12-26T20:08:41.714Z,1.25
2022-12-26T20:11:11.209Z,1.30
2022-12-26T20:13:37.748Z,1.40
2022-12-26T20:16:06.385Z,1.35
2022-12-26T20:18:35.191Z,1.67
2022-12-26T20:21:02.038Z,1.60
2022-12-26T20:23:28.837Z,1.30
2022-12-26T20:25:58.630Z,1.30
2022-12-26T20:28:25.436Z,1.70
2022-12-26T20:31:19.811Z,1.80
2022-12-26T20:33:49.480Z,1.45
2022-12-26T20:36:18.985Z,1.58
2022-12-26T20:38:46.282Z,1.92
2022-12-26T20:41:13.077Z,1.52
2022-12-26T20:43:40.135Z,1.80
2022-12-26T20:46:09.082Z,1.40
2022-12-26T20:48:36.327Z,1.50
2022-12-26T20:51:06.394Z,2.08
2022-12-26T20:53:33.660Z,1.25
2022-12-26T20:56:00.365Z,1.10
2022-12-26T20:58:30.412Z,0.98
2022-12-26T21:00:58.470Z,1.33
2022-12-26T21:03:26.281Z,1.20
2022-12-26T21:05:53.787Z,0.90
2022-12-26T21:08:20.754Z,1.00
2022-12-26T21:10:47.158Z,0.80
2022-12-26T21:13:13.819Z,1.05
2022-12-26T21:15:40.521Z,1.10
2022-12-26T21:18:06.826Z,1.20
2022-12-26T21:20:36.286Z,0.90
2022-12-26T21:23:02.698Z,1.10
2022-12-26T21:25:29.105Z,1.70
2022-12-26T21:27:59.090Z,1.20
2022-12-26T21:30:25.833Z,1.10
2022-12-26T21:32:52.204Z,0.70
2022-12-26T21:35:18.785Z,1.65
2022-12-26T21:37:45.177Z,0.75
2022-12-26T21:40:12.154Z,0.90
2022-12-26T21:42:38.525Z,1.20
2022-12-26T21:45:05.208Z,1.00
2022-12-26T21:47:31.624Z,0.90
2022-12-26T21:49:57.975Z,1.05
2022-12-26T21:52:24.377Z,1.00
2022-12-26T21:54:50.767Z,0.90
2022-12-26T21:57:18.341Z,1.25
2022-12-26T21:59:45.542Z,1.40
2022-12-26T22:02:13.706Z,1.02
2022-12-26T22:04:40.183Z,1.10
2022-12-26T22:07:06.529Z,0.90
2022-12-26T22:09:33.108Z,0.95
2022-12-26T22:11:59.756Z,1.25
2022-12-26T22:14:26.165Z,1.38
2022-12-26T22:16:53.929Z,1.00
2022-12-26T22:19:20.920Z,1.10
2022-12-26T22:21:47.471Z,0.90
2022-12-26T22:24:13.963Z,1.17
2022-12-26T22:26:40.334Z,1.17
2022-12-26T22:29:06.690Z,0.73
2022-12-26T22:31:35.285Z,1.02
2022-12-26T22:34:10.868Z,0.98
2022-12-26T22:36:37.263Z,0.70
2022-12-26T22:39:04.243Z,1.20
2022-12-26T22:41:30.789Z,1.40
2022-12-26T22:43:57.555Z,1.20
2022-12-26T22:46:24.110Z,1.00
2022-12-26T22:48:50.940Z,0.82
2022-12-26T22:51:21.929Z,1.00
2022-12-26T22:53:49.005Z,0.80
2022-12-26T22:56:15.395Z,1.00
2022-12-26T22:58:41.977Z,0.88
2022-12-26T23:01:16.916Z,1.35
2022-12-26T23:03:43.604Z,1.20
2022-12-26T23:06:19.986Z,1.20
2022-12-26T23:08:46.999Z,1.20
2022-12-26T23:11:13.666Z,1.10
2022-12-26T23:13:40.396Z,1.30
2022-12-26T23:16:33.813Z,1.00
2022-12-26T23:19:05.318Z,1.02
2022-12-26T23:21:34.666Z,1.20
2022-12-26T23:24:01.104Z,1.10
2022-12-26T23:26:27.480Z,0.88
2022-12-26T23:28:54.001Z,1.50
2022-12-26T23:31:20.728Z,1.17
2022-12-26T23:33:47.177Z,1.10
2022-12-26T23:36:13.762Z,0.95
2022-12-26T23:38:40.105Z,0.98
2022-12-26T23:41:06.556Z,0.98
2022-12-26T23:43:32.941Z,1.20
2022-12-26T23:46:00.537Z,1.10
2022-12-26T23:48:27.065Z,1.20
2022-12-26T23:51:07.420Z,1.05
2022-12-26T23:53:34.307Z,1.05
2022-12-26T23:56:00.652Z,1.25
2022-12-26T23:58:27.340Z,0.85
